sensor_id;sensor_type;location;lat;lon;timestamp;P1;durP1;ratioP1;P2;durP2;ratioP2
13185;SDS011;6658;53.080;7.428;2023-02-15T00:01:46;24.13;;;20.90;;
13185;SDS011;6658;53.080;7.428;2023-02-15T00:04:13;25.83;;;20.87;;
13185;SDS011;6658;53.080;7.428;2023-02-15T00:06:39;29.27;;;22.47;;
13185;SDS011;6658;53.080;7.428;2023-02-15T00:09:05;28.47;;;22.13;;
13185;SDS011;6658;53.080;7.428;2023-02-15T00:11:31;29.40;;;21.80;;
13185;SDS011;6658;53.080;7.428;2023-02-15T00:14:11;26.27;;;22.47;;
13185;SDS011;6658;53.080;7.428;2023-02-15T00:16:38;30.60;;;23.23;;
13185;SDS011;6658;53.080;7.428;2023-02-15T00:19:05;28.27;;;21.83;;
13185;SDS011;6658;53.080;7.428;2023-02-15T00:21:31;30.53;;;23.30;;
13185;SDS011;6658;53.080;7.428;2023-02-15T00:23:58;27.00;;;22.23;;
13185;SDS011;6658;53.080;7.428;2023-02-15T00:26:25;28.63;;;22.27;;
13185;SDS011;6658;53.080;7.428;2023-02-15T00:28:51;26.17;;;21.20;;
13185;SDS011;6658;53.080;7.428;2023-02-15T00:31:17;30.60;;;22.57;;
13185;SDS011;6658;53.080;7.428;2023-02-15T00:33:43;27.37;;;21.50;;
13185;SDS011;6658;53.080;7.428;2023-02-15T00:36:09;28.97;;;21.80;;
13185;SDS011;6658;53.080;7.428;2023-02-15T00:38:35;29.73;;;22.27;;
13185;SDS011;6658;53.080;7.428;2023-02-15T00:41:03;32.67;;;23.30;;
13185;SDS011;6658;53.080;7.428;2023-02-15T00:43:30;29.97;;;21.83;;
13185;SDS011;6658;53.080;7.428;2023-02-15T00:45:57;27.20;;;21.90;;
13185;SDS011;6658;53.080;7.428;2023-02-15T00:48:23;32.07;;;23.63;;
13185;SDS011;6658;53.080;7.428;2023-02-15T00:50:50;35.83;;;24.80;;
13185;SDS011;6658;53.080;7.428;2023-02-15T00:53:17;30.23;;;22.43;;
13185;SDS011;6658;53.080;7.428;2023-02-15T00:55:42;32.60;;;23.53;;
13185;SDS011;6658;53.080;7.428;2023-02-15T00:58:09;32.37;;;23.83;;
13185;SDS011;6658;53.080;7.428;2023-02-15T01:00:35;34.03;;;24.90;;
13185;SDS011;6658;53.080;7.428;2023-02-15T01:03:01;32.73;;;23.73;;
13185;SDS011;6658;53.080;7.428;2023-02-15T01:05:27;32.00;;;24.23;;
13185;SDS011;6658;53.080;7.428;2023-02-15T01:07:54;34.63;;;25.43;;
13185;SDS011;6658;53.080;7.428;2023-02-15T01:10:21;31.00;;;23.50;;
13185;SDS011;6658;53.080;7.428;2023-02-15T01:12:46;32.67;;;25.33;;
13185;SDS011;6658;53.080;7.428;2023-02-15T01:15:13;34.27;;;26.00;;
13185;SDS011;6658;53.080;7.428;2023-02-15T01:17:38;32.97;;;25.30;;
13185;SDS011;6658;53.080;7.428;2023-02-15T01:20:05;31.57;;;25.00;;
13185;SDS011;6658;53.080;7.428;2023-02-15T01:22:31;31.07;;;25.00;;
13185;SDS011;6658;53.080;7.428;2023-02-15T01:24:57;30.30;;;23.80;;
13185;SDS011;6658;53.080;7.428;2023-02-15T01:27:23;34.20;;;25.90;;
13185;SDS011;6658;53.080;7.428;2023-02-15T01:29:49;33.90;;;25.43;;
13185;SDS011;6658;53.080;7.428;2023-02-15T01:32:15;30.70;;;25.57;;
13185;SDS011;6658;53.080;7.428;2023-02-15T01:34:40;35.07;;;26.10;;
13185;SDS011;6658;53.080;7.428;2023-02-15T01:37:06;33.03;;;23.60;;
13185;SDS011;6658;53.080;7.428;2023-02-15T01:39:32;31.50;;;23.87;;
13185;SDS011;6658;53.080;7.428;2023-02-15T01:41:57;30.97;;;23.57;;
13185;SDS011;6658;53.080;7.428;2023-02-15T01:50:15;33.13;;;24.13;;
13185;SDS011;6658;53.080;7.428;2023-02-15T01:52:52;30.90;;;24.07;;
13185;SDS011;6658;53.080;7.428;2023-02-15T01:55:34;35.00;;;25.43;;
13185;SDS011;6658;53.080;7.428;2023-02-15T01:58:03;32.83;;;24.17;;
13185;SDS011;6658;53.080;7.428;2023-02-15T02:00:29;33.33;;;25.73;;
13185;SDS011;6658;53.080;7.428;2023-02-15T02:02:55;36.23;;;25.20;;
13185;SDS011;6658;53.080;7.428;2023-02-15T02:05:22;38.20;;;27.17;;
13185;SDS011;6658;53.080;7.428;2023-02-15T02:07:48;33.07;;;25.93;;
13185;SDS011;6658;53.080;7.428;2023-02-15T02:10:19;32.87;;;24.83;;
13185;SDS011;6658;53.080;7.428;2023-02-15T02:12:47;34.20;;;25.37;;
13185;SDS011;6658;53.080;7.428;2023-02-15T02:15:16;35.13;;;24.67;;
13185;SDS011;6658;53.080;7.428;2023-02-15T02:33:53;32.93;;;24.00;;
13185;SDS011;6658;53.080;7.428;2023-02-15T02:44:56;30.23;;;23.80;;
13185;SDS011;6658;53.080;7.428;2023-02-15T02:47:31;33.30;;;23.93;;
13185;SDS011;6658;53.080;7.428;2023-02-15T02:50:07;30.73;;;23.33;;
13185;SDS011;6658;53.080;7.428;2023-02-15T02:52:47;30.97;;;24.20;;
13185;SDS011;6658;53.080;7.428;2023-02-15T02:55:23;35.47;;;23.97;;
13185;SDS011;6658;53.080;7.428;2023-02-15T02:58:05;36.40;;;22.80;;
13185;SDS011;6658;53.080;7.428;2023-02-15T03:00:46;31.53;;;23.57;;
13185;SDS011;6658;53.080;7.428;2023-02-15T03:05:58;32.67;;;24.53;;
13185;SDS011;6658;53.080;7.428;2023-02-15T03:08:28;32.90;;;24.90;;
13185;SDS011;6658;53.080;7.428;2023-02-15T03:11:01;34.73;;;24.60;;
13185;SDS011;6658;53.080;7.428;2023-02-15T03:13:30;32.30;;;24.50;;
13185;SDS011;6658;53.080;7.428;2023-02-15T03:15:57;33.97;;;24.03;;
13185;SDS011;6658;53.080;7.428;2023-02-15T03:18:48;32.10;;;24.27;;
13185;SDS011;6658;53.080;7.428;2023-02-15T03:21:23;33.00;;;23.90;;
13185;SDS011;6658;53.080;7.428;2023-02-15T03:24:29;30.10;;;22.57;;
13185;SDS011;6658;53.080;7.428;2023-02-15T03:26:59;37.13;;;25.23;;
13185;SDS011;6658;53.080;7.428;2023-02-15T03:29:27;38.30;;;25.93;;
13185;SDS011;6658;53.080;7.428;2023-02-15T03:31:56;39.17;;;26.07;;
13185;SDS011;6658;53.080;7.428;2023-02-15T03:34:27;34.33;;;26.23;;
13185;SDS011;6658;53.080;7.428;2023-02-15T03:37:01;33.43;;;23.80;;
13185;SDS011;6658;53.080;7.428;2023-02-15T03:40:40;36.90;;;25.13;;
13185;SDS011;6658;53.080;7.428;2023-02-15T03:42:53;32.13;;;23.83;;
13185;SDS011;6658;53.080;7.428;2023-02-15T03:45:26;33.10;;;25.00;;
13185;SDS011;6658;53.080;7.428;2023-02-15T03:47:56;37.67;;;26.47;;
13185;SDS011;6658;53.080;7.428;2023-02-15T03:50:26;39.43;;;26.40;;
13185;SDS011;6658;53.080;7.428;2023-02-15T03:53:30;37.00;;;25.47;;
13185;SDS011;6658;53.080;7.428;2023-02-15T03:55:56;37.23;;;26.00;;
13185;SDS011;6658;53.080;7.428;2023-02-15T03:58:22;41.37;;;27.47;;
13185;SDS011;6658;53.080;7.428;2023-02-15T04:04:18;38.10;;;26.33;;
13185;SDS011;6658;53.080;7.428;2023-02-15T04:06:46;36.17;;;27.37;;
13185;SDS011;6658;53.080;7.428;2023-02-15T04:09:12;40.47;;;28.73;;
13185;SDS011;6658;53.080;7.428;2023-02-15T04:11:56;42.87;;;29.10;;
13185;SDS011;6658;53.080;7.428;2023-02-15T04:14:22;41.80;;;29.23;;
13185;SDS011;6658;53.080;7.428;2023-02-15T04:17:06;41.87;;;28.23;;
13185;SDS011;6658;53.080;7.428;2023-02-15T04:19:33;46.43;;;30.53;;
13185;SDS011;6658;53.080;7.428;2023-02-15T04:22:17;47.23;;;31.83;;
13185;SDS011;6658;53.080;7.428;2023-02-15T04:25:01;47.93;;;30.23;;
13185;SDS011;6658;53.080;7.428;2023-02-15T04:27:40;46.07;;;29.43;;
13185;SDS011;6658;53.080;7.428;2023-02-15T04:30:08;45.23;;;29.97;;
13185;SDS011;6658;53.080;7.428;2023-02-15T04:32:35;50.63;;;31.20;;
13185;SDS011;6658;53.080;7.428;2023-02-15T04:35:01;41.10;;;29.37;;
13185;SDS011;6658;53.080;7.428;2023-02-15T04:37:27;45.37;;;29.50;;
13185;SDS011;6658;53.080;7.428;2023-02-15T04:39:53;47.80;;;30.27;;
13185;SDS011;6658;53.080;7.428;2023-02-15T04:42:19;46.30;;;31.57;;
13185;SDS011;6658;53.080;7.428;2023-02-15T04:44:45;45.63;;;29.13;;
13185;SDS011;6658;53.080;7.428;2023-02-15T04:47:10;39.90;;;27.60;;
13185;SDS011;6658;53.080;7.428;2023-02-15T04:49:36;45.03;;;28.30;;
13185;SDS011;6658;53.080;7.428;2023-02-15T04:52:02;42.33;;;28.67;;
13185;SDS011;6658;53.080;7.428;2023-02-15T04:54:28;46.97;;;29.33;;
13185;SDS011;6658;53.080;7.428;2023-02-15T04:56:53;45.13;;;30.80;;
13185;SDS011;6658;53.080;7.428;2023-02-15T04:59:19;43.80;;;29.63;;
13185;SDS011;6658;53.080;7.428;2023-02-15T05:01:44;45.40;;;29.60;;
13185;SDS011;6658;53.080;7.428;2023-02-15T05:04:10;39.63;;;28.47;;
13185;SDS011;6658;53.080;7.428;2023-02-15T05:06:36;39.97;;;27.40;;
13185;SDS011;6658;53.080;7.428;2023-02-15T05:09:01;42.67;;;28.03;;
13185;SDS011;6658;53.080;7.428;2023-02-15T05:11:27;43.60;;;29.00;;
13185;SDS011;6658;53.080;7.428;2023-02-15T05:13:53;41.10;;;29.03;;
13185;SDS011;6658;53.080;7.428;2023-02-15T05:16:19;39.90;;;29.03;;
13185;SDS011;6658;53.080;7.428;2023-02-15T05:18:44;44.10;;;29.40;;
13185;SDS011;6658;53.080;7.428;2023-02-15T05:21:10;45.37;;;28.03;;
13185;SDS011;6658;53.080;7.428;2023-02-15T05:23:36;42.93;;;29.50;;
13185;SDS011;6658;53.080;7.428;2023-02-15T05:26:02;39.10;;;28.83;;
13185;SDS011;6658;53.080;7.428;2023-02-15T05:28:46;42.87;;;28.97;;
13185;SDS011;6658;53.080;7.428;2023-02-15T05:31:13;45.67;;;29.10;;
13185;SDS011;6658;53.080;7.428;2023-02-15T05:33:41;45.30;;;30.00;;
13185;SDS011;6658;53.080;7.428;2023-02-15T05:36:08;46.67;;;29.57;;
13185;SDS011;6658;53.080;7.428;2023-02-15T05:38:34;41.60;;;29.90;;
13185;SDS011;6658;53.080;7.428;2023-02-15T05:41:02;47.00;;;31.17;;
13185;SDS011;6658;53.080;7.428;2023-02-15T05:43:29;49.47;;;32.10;;
13185;SDS011;6658;53.080;7.428;2023-02-15T05:45:56;51.47;;;32.80;;
13185;SDS011;6658;53.080;7.428;2023-02-15T05:48:22;49.27;;;32.90;;
13185;SDS011;6658;53.080;7.428;2023-02-15T05:51:00;46.40;;;32.37;;
13185;SDS011;6658;53.080;7.428;2023-02-15T05:53:31;51.53;;;32.93;;
13185;SDS011;6658;53.080;7.428;2023-02-15T05:55:58;48.33;;;32.20;;
13185;SDS011;6658;53.080;7.428;2023-02-15T05:58:25;54.00;;;33.13;;
13185;SDS011;6658;53.080;7.428;2023-02-15T06:00:52;48.80;;;32.10;;
13185;SDS011;6658;53.080;7.428;2023-02-15T06:03:18;51.00;;;33.23;;
13185;SDS011;6658;53.080;7.428;2023-02-15T06:05:44;45.93;;;32.00;;
13185;SDS011;6658;53.080;7.428;2023-02-15T06:08:09;50.60;;;31.77;;
13185;SDS011;6658;53.080;7.428;2023-02-15T06:10:35;51.60;;;32.80;;
13185;SDS011;6658;53.080;7.428;2023-02-15T06:13:01;49.60;;;32.10;;
13185;SDS011;6658;53.080;7.428;2023-02-15T06:15:29;52.07;;;32.57;;
13185;SDS011;6658;53.080;7.428;2023-02-15T06:17:55;50.97;;;33.20;;
13185;SDS011;6658;53.080;7.428;2023-02-15T06:20:39;50.57;;;31.27;;
13185;SDS011;6658;53.080;7.428;2023-02-15T06:23:05;52.03;;;35.20;;
13185;SDS011;6658;53.080;7.428;2023-02-15T06:25:31;52.90;;;33.20;;
13185;SDS011;6658;53.080;7.428;2023-02-15T06:27:57;56.17;;;35.60;;
13185;SDS011;6658;53.080;7.428;2023-02-15T06:30:22;57.80;;;34.90;;
13185;SDS011;6658;53.080;7.428;2023-02-15T06:32:48;57.10;;;34.90;;
13185;SDS011;6658;53.080;7.428;2023-02-15T06:35:23;55.17;;;34.67;;
13185;SDS011;6658;53.080;7.428;2023-02-15T06:37:49;56.57;;;33.97;;
13185;SDS011;6658;53.080;7.428;2023-02-15T06:40:18;54.27;;;34.30;;
13185;SDS011;6658;53.080;7.428;2023-02-15T06:42:44;50.33;;;34.33;;
13185;SDS011;6658;53.080;7.428;2023-02-15T06:45:10;53.63;;;35.33;;
13185;SDS011;6658;53.080;7.428;2023-02-15T06:47:36;54.10;;;34.40;;
13185;SDS011;6658;53.080;7.428;2023-02-15T06:50:05;53.07;;;36.43;;
13185;SDS011;6658;53.080;7.428;2023-02-15T06:52:32;54.60;;;33.67;;
13185;SDS011;6658;53.080;7.428;2023-02-15T06:54:58;58.43;;;35.97;;
13185;SDS011;6658;53.080;7.428;2023-02-15T06:57:23;56.87;;;35.07;;
13185;SDS011;6658;53.080;7.428;2023-02-15T06:59:49;56.13;;;37.23;;
13185;SDS011;6658;53.080;7.428;2023-02-15T07:02:15;55.67;;;35.20;;
13185;SDS011;6658;53.080;7.428;2023-02-15T07:04:41;65.83;;;37.87;;
13185;SDS011;6658;53.080;7.428;2023-02-15T07:07:12;57.90;;;36.13;;
13185;SDS011;6658;53.080;7.428;2023-02-15T07:09:38;55.20;;;35.80;;
13185;SDS011;6658;53.080;7.428;2023-02-15T07:12:04;56.80;;;37.03;;
13185;SDS011;6658;53.080;7.428;2023-02-15T07:14:49;60.07;;;38.47;;
13185;SDS011;6658;53.080;7.428;2023-02-15T07:17:15;59.93;;;36.27;;
13185;SDS011;6658;53.080;7.428;2023-02-15T07:19:42;64.60;;;39.03;;
13185;SDS011;6658;53.080;7.428;2023-02-15T07:22:08;60.90;;;36.27;;
13185;SDS011;6658;53.080;7.428;2023-02-15T07:24:36;60.53;;;37.67;;
13185;SDS011;6658;53.080;7.428;2023-02-15T07:27:02;61.03;;;37.23;;
13185;SDS011;6658;53.080;7.428;2023-02-15T07:29:28;66.57;;;40.33;;
13185;SDS011;6658;53.080;7.428;2023-02-15T07:31:54;61.20;;;38.27;;
13185;SDS011;6658;53.080;7.428;2023-02-15T07:34:20;63.43;;;38.60;;
13185;SDS011;6658;53.080;7.428;2023-02-15T07:36:46;64.47;;;38.97;;
13185;SDS011;6658;53.080;7.428;2023-02-15T07:39:18;62.50;;;38.00;;
13185;SDS011;6658;53.080;7.428;2023-02-15T07:41:44;59.30;;;37.40;;
13185;SDS011;6658;53.080;7.428;2023-02-15T07:44:13;59.00;;;36.40;;
13185;SDS011;6658;53.080;7.428;2023-02-15T07:46:40;61.13;;;38.97;;
13185;SDS011;6658;53.080;7.428;2023-02-15T07:49:06;61.67;;;37.60;;
13185;SDS011;6658;53.080;7.428;2023-02-15T07:51:33;62.33;;;38.23;;
13185;SDS011;6658;53.080;7.428;2023-02-15T07:53:58;63.57;;;39.07;;
13185;SDS011;6658;53.080;7.428;2023-02-15T07:56:24;61.40;;;38.67;;
13185;SDS011;6658;53.080;7.428;2023-02-15T07:58:50;63.43;;;39.57;;
13185;SDS011;6658;53.080;7.428;2023-02-15T08:01:15;69.60;;;41.17;;
13185;SDS011;6658;53.080;7.428;2023-02-15T08:03:42;68.67;;;40.87;;
13185;SDS011;6658;53.080;7.428;2023-02-15T08:06:08;64.30;;;40.73;;
13185;SDS011;6658;53.080;7.428;2023-02-15T08:08:36;66.93;;;44.07;;
13185;SDS011;6658;53.080;7.428;2023-02-15T08:13:56;72.83;;;43.33;;
13185;SDS011;6658;53.080;7.428;2023-02-15T08:19:13;70.63;;;43.63;;
13185;SDS011;6658;53.080;7.428;2023-02-15T08:21:42;69.40;;;43.43;;
13185;SDS011;6658;53.080;7.428;2023-02-15T08:24:10;68.87;;;43.33;;
13185;SDS011;6658;53.080;7.428;2023-02-15T08:26:37;69.20;;;42.97;;
13185;SDS011;6658;53.080;7.428;2023-02-15T08:29:04;69.37;;;43.23;;
13185;SDS011;6658;53.080;7.428;2023-02-15T08:31:31;71.57;;;44.20;;
13185;SDS011;6658;53.080;7.428;2023-02-15T08:33:58;64.93;;;43.33;;
13185;SDS011;6658;53.080;7.428;2023-02-15T08:36:28;63.90;;;41.00;;
13185;SDS011;6658;53.080;7.428;2023-02-15T08:38:56;67.93;;;41.03;;
13185;SDS011;6658;53.080;7.428;2023-02-15T08:41:24;64.70;;;42.17;;
13185;SDS011;6658;53.080;7.428;2023-02-15T08:43:52;69.60;;;41.80;;
13185;SDS011;6658;53.080;7.428;2023-02-15T08:46:20;64.73;;;41.03;;
13185;SDS011;6658;53.080;7.428;2023-02-15T08:48:50;63.73;;;40.97;;
13185;SDS011;6658;53.080;7.428;2023-02-15T08:51:23;67.37;;;41.30;;
13185;SDS011;6658;53.080;7.428;2023-02-15T08:53:51;63.23;;;41.27;;
13185;SDS011;6658;53.080;7.428;2023-02-15T08:56:20;65.57;;;40.17;;
13185;SDS011;6658;53.080;7.428;2023-02-15T08:58:47;64.40;;;39.30;;
13185;SDS011;6658;53.080;7.428;2023-02-15T09:01:15;59.63;;;38.83;;
13185;SDS011;6658;53.080;7.428;2023-02-15T09:03:49;65.17;;;40.60;;
13185;SDS011;6658;53.080;7.428;2023-02-15T09:06:18;63.97;;;40.80;;
13185;SDS011;6658;53.080;7.428;2023-02-15T09:08:45;61.57;;;40.17;;
13185;SDS011;6658;53.080;7.428;2023-02-15T09:11:15;60.67;;;40.37;;
13185;SDS011;6658;53.080;7.428;2023-02-15T09:13:47;58.73;;;39.37;;
13185;SDS011;6658;53.080;7.428;2023-02-15T09:16:15;63.33;;;41.13;;
13185;SDS011;6658;53.080;7.428;2023-02-15T09:18:41;56.70;;;39.17;;
13185;SDS011;6658;53.080;7.428;2023-02-15T09:21:12;62.93;;;40.20;;
13185;SDS011;6658;53.080;7.428;2023-02-15T09:23:43;53.47;;;38.80;;
13185;SDS011;6658;53.080;7.428;2023-02-15T09:26:11;56.10;;;39.30;;
13185;SDS011;6658;53.080;7.428;2023-02-15T09:28:38;52.93;;;37.20;;
13185;SDS011;6658;53.080;7.428;2023-02-15T09:33:43;54.03;;;38.20;;
13185;SDS011;6658;53.080;7.428;2023-02-15T09:36:17;51.13;;;36.60;;
13185;SDS011;6658;53.080;7.428;2023-02-15T09:44:20;48.17;;;36.83;;
13185;SDS011;6658;53.080;7.428;2023-02-15T09:56:01;42.70;;;33.47;;
13185;SDS011;6658;53.080;7.428;2023-02-15T09:58:46;39.73;;;31.43;;
13185;SDS011;6658;53.080;7.428;2023-02-15T10:13:17;30.60;;;26.03;;
13185;SDS011;6658;53.080;7.428;2023-02-15T10:15:42;28.10;;;24.43;;
13185;SDS011;6658;53.080;7.428;2023-02-15T10:26:21;23.73;;;21.23;;
13185;SDS011;6658;53.080;7.428;2023-02-15T10:36:33;20.60;;;18.13;;
13185;SDS011;6658;53.080;7.428;2023-02-15T10:50:22;19.50;;;16.63;;
13185;SDS011;6658;53.080;7.428;2023-02-15T11:06:48;19.63;;;16.50;;
13185;SDS011;6658;53.080;7.428;2023-02-15T11:09:18;19.63;;;15.90;;
13185;SDS011;6658;53.080;7.428;2023-02-15T11:11:56;20.07;;;17.97;;
13185;SDS011;6658;53.080;7.428;2023-02-15T11:14:33;18.17;;;16.27;;
13185;SDS011;6658;53.080;7.428;2023-02-15T11:17:21;18.70;;;16.70;;
13185;SDS011;6658;53.080;7.428;2023-02-15T11:19:58;20.17;;;17.70;;
13185;SDS011;6658;53.080;7.428;2023-02-15T11:22:36;19.13;;;16.63;;
13185;SDS011;6658;53.080;7.428;2023-02-15T11:25:05;20.07;;;17.80;;
13185;SDS011;6658;53.080;7.428;2023-02-15T11:27:42;20.77;;;16.70;;
13185;SDS011;6658;53.080;7.428;2023-02-15T11:30:17;19.50;;;16.53;;
13185;SDS011;6658;53.080;7.428;2023-02-15T11:32:46;19.07;;;16.07;;
13185;SDS011;6658;53.080;7.428;2023-02-15T11:40:49;19.57;;;16.73;;
13185;SDS011;6658;53.080;7.428;2023-02-15T11:43:35;18.43;;;16.37;;
13185;SDS011;6658;53.080;7.428;2023-02-15T11:46:06;17.23;;;15.40;;
13185;SDS011;6658;53.080;7.428;2023-02-15T11:48:33;20.33;;;16.57;;
13185;SDS011;6658;53.080;7.428;2023-02-15T11:51:00;18.07;;;14.73;;
13185;SDS011;6658;53.080;7.428;2023-02-15T11:53:28;17.90;;;15.93;;
13185;SDS011;6658;53.080;7.428;2023-02-15T11:55:58;19.90;;;16.47;;
13185;SDS011;6658;53.080;7.428;2023-02-15T11:58:39;19.20;;;16.07;;
13185;SDS011;6658;53.080;7.428;2023-02-15T12:03:54;21.27;;;16.30;;
13185;SDS011;6658;53.080;7.428;2023-02-15T12:06:27;21.80;;;16.47;;
13185;SDS011;6658;53.080;7.428;2023-02-15T12:09:05;18.63;;;14.77;;
13185;SDS011;6658;53.080;7.428;2023-02-15T12:11:51;18.27;;;16.30;;
13185;SDS011;6658;53.080;7.428;2023-02-15T12:14:17;19.17;;;16.33;;
13185;SDS011;6658;53.080;7.428;2023-02-15T12:16:50;23.87;;;16.90;;
13185;SDS011;6658;53.080;7.428;2023-02-15T12:22:22;18.63;;;15.57;;
13185;SDS011;6658;53.080;7.428;2023-02-15T12:24:50;17.20;;;15.30;;
13185;SDS011;6658;53.080;7.428;2023-02-15T12:27:29;18.53;;;15.17;;
13185;SDS011;6658;53.080;7.428;2023-02-15T12:30:00;19.20;;;15.83;;
13185;SDS011;6658;53.080;7.428;2023-02-15T12:32:36;18.57;;;15.77;;
13185;SDS011;6658;53.080;7.428;2023-02-15T12:35:37;23.63;;;16.10;;
13185;SDS011;6658;53.080;7.428;2023-02-15T12:38:05;18.70;;;16.10;;
13185;SDS011;6658;53.080;7.428;2023-02-15T12:40:59;19.00;;;15.77;;
13185;SDS011;6658;53.080;7.428;2023-02-15T12:46:18;20.07;;;16.23;;
13185;SDS011;6658;53.080;7.428;2023-02-15T12:48:46;23.27;;;15.63;;
13185;SDS011;6658;53.080;7.428;2023-02-15T12:51:13;18.47;;;15.27;;
13185;SDS011;6658;53.080;7.428;2023-02-15T12:53:40;17.67;;;15.30;;
13185;SDS011;6658;53.080;7.428;2023-02-15T12:56:07;20.43;;;15.87;;
13185;SDS011;6658;53.080;7.428;2023-02-15T12:58:38;17.73;;;14.87;;
13185;SDS011;6658;53.080;7.428;2023-02-15T13:03:34;18.03;;;16.10;;
13185;SDS011;6658;53.080;7.428;2023-02-15T13:06:03;18.33;;;14.90;;
13185;SDS011;6658;53.080;7.428;2023-02-15T13:08:53;17.47;;;14.37;;
13185;SDS011;6658;53.080;7.428;2023-02-15T13:11:25;17.80;;;14.13;;
13185;SDS011;6658;53.080;7.428;2023-02-15T13:14:00;18.03;;;15.07;;
13185;SDS011;6658;53.080;7.428;2023-02-15T13:16:41;17.23;;;14.40;;
13185;SDS011;6658;53.080;7.428;2023-02-15T13:19:14;18.57;;;13.73;;
13185;SDS011;6658;53.080;7.428;2023-02-15T13:21:48;17.37;;;13.53;;
13185;SDS011;6658;53.080;7.428;2023-02-15T13:24:24;20.00;;;14.23;;
13185;SDS011;6658;53.080;7.428;2023-02-15T13:27:00;24.80;;;15.27;;
13185;SDS011;6658;53.080;7.428;2023-02-15T13:29:28;19.80;;;14.30;;
13185;SDS011;6658;53.080;7.428;2023-02-15T13:31:57;19.37;;;14.93;;
13185;SDS011;6658;53.080;7.428;2023-02-15T13:34:27;17.97;;;14.57;;
13185;SDS011;6658;53.080;7.428;2023-02-15T13:39:51;17.27;;;14.13;;
13185;SDS011;6658;53.080;7.428;2023-02-15T13:42:25;17.40;;;14.27;;
13185;SDS011;6658;53.080;7.428;2023-02-15T13:54:18;18.67;;;14.33;;
13185;SDS011;6658;53.080;7.428;2023-02-15T13:59:38;22.00;;;15.13;;
13185;SDS011;6658;53.080;7.428;2023-02-15T14:02:30;19.57;;;14.07;;
13185;SDS011;6658;53.080;7.428;2023-02-15T14:08:07;19.57;;;13.20;;
13185;SDS011;6658;53.080;7.428;2023-02-15T14:10:40;21.33;;;15.33;;
13185;SDS011;6658;53.080;7.428;2023-02-15T14:18:35;22.07;;;16.97;;
13185;SDS011;6658;53.080;7.428;2023-02-15T14:26:26;17.47;;;14.63;;
13185;SDS011;6658;53.080;7.428;2023-02-15T14:31:45;20.00;;;14.60;;
13185;SDS011;6658;53.080;7.428;2023-02-15T14:34:18;19.67;;;15.00;;
13185;SDS011;6658;53.080;7.428;2023-02-15T14:37:08;20.10;;;14.60;;
13185;SDS011;6658;53.080;7.428;2023-02-15T14:39:50;18.57;;;14.13;;
13185;SDS011;6658;53.080;7.428;2023-02-15T14:42:39;18.90;;;14.30;;
13185;SDS011;6658;53.080;7.428;2023-02-15T14:48:21;18.70;;;14.87;;
13185;SDS011;6658;53.080;7.428;2023-02-15T14:50:55;21.77;;;15.27;;
13185;SDS011;6658;53.080;7.428;2023-02-15T14:56:05;19.73;;;14.00;;
13185;SDS011;6658;53.080;7.428;2023-02-15T14:58:32;19.70;;;14.83;;
13185;SDS011;6658;53.080;7.428;2023-02-15T15:01:06;19.57;;;14.33;;
13185;SDS011;6658;53.080;7.428;2023-02-15T15:03:34;17.43;;;13.43;;
13185;SDS011;6658;53.080;7.428;2023-02-15T15:06:02;21.10;;;15.73;;
13185;SDS011;6658;53.080;7.428;2023-02-15T15:08:33;21.30;;;14.50;;
13185;SDS011;6658;53.080;7.428;2023-02-15T15:16:27;21.10;;;15.27;;
13185;SDS011;6658;53.080;7.428;2023-02-15T15:18:53;17.17;;;14.23;;
13185;SDS011;6658;53.080;7.428;2023-02-15T15:35:23;20.47;;;16.20;;
13185;SDS011;6658;53.080;7.428;2023-02-15T15:38:05;19.83;;;15.13;;
13185;SDS011;6658;53.080;7.428;2023-02-15T15:40:41;19.43;;;14.80;;
13185;SDS011;6658;53.080;7.428;2023-02-15T15:45:41;20.40;;;14.90;;
13185;SDS011;6658;53.080;7.428;2023-02-15T15:48:30;18.40;;;14.60;;
13185;SDS011;6658;53.080;7.428;2023-02-15T15:51:10;20.83;;;14.43;;
13185;SDS011;6658;53.080;7.428;2023-02-15T15:53:44;23.07;;;16.37;;
13185;SDS011;6658;53.080;7.428;2023-02-15T15:56:15;20.10;;;16.57;;
13185;SDS011;6658;53.080;7.428;2023-02-15T15:58:46;21.17;;;16.17;;
13185;SDS011;6658;53.080;7.428;2023-02-15T16:01:24;21.93;;;16.53;;
13185;SDS011;6658;53.080;7.428;2023-02-15T16:03:55;21.57;;;15.87;;
13185;SDS011;6658;53.080;7.428;2023-02-15T16:06:36;21.27;;;16.40;;
13185;SDS011;6658;53.080;7.428;2023-02-15T16:09:13;20.80;;;16.17;;
13185;SDS011;6658;53.080;7.428;2023-02-15T16:11:41;20.80;;;16.47;;
13185;SDS011;6658;53.080;7.428;2023-02-15T16:14:15;21.10;;;15.67;;
13185;SDS011;6658;53.080;7.428;2023-02-15T16:16:54;21.03;;;16.30;;
13185;SDS011;6658;53.080;7.428;2023-02-15T16:19:43;20.30;;;15.40;;
13185;SDS011;6658;53.080;7.428;2023-02-15T16:22:13;20.63;;;16.03;;
13185;SDS011;6658;53.080;7.428;2023-02-15T16:29:57;19.57;;;15.90;;
13185;SDS011;6658;53.080;7.428;2023-02-15T16:32:24;19.63;;;16.10;;
13185;SDS011;6658;53.080;7.428;2023-02-15T16:34:52;21.67;;;15.83;;
13185;SDS011;6658;53.080;7.428;2023-02-15T16:37:19;23.77;;;16.93;;
13185;SDS011;6658;53.080;7.428;2023-02-15T16:39:48;23.20;;;16.70;;
13185;SDS011;6658;53.080;7.428;2023-02-15T16:42:15;24.87;;;18.23;;
13185;SDS011;6658;53.080;7.428;2023-02-15T16:44:43;24.77;;;17.43;;
13185;SDS011;6658;53.080;7.428;2023-02-15T16:47:18;22.00;;;17.70;;
13185;SDS011;6658;53.080;7.428;2023-02-15T16:49:51;20.47;;;16.07;;
13185;SDS011;6658;53.080;7.428;2023-02-15T16:52:19;21.87;;;16.10;;
13185;SDS011;6658;53.080;7.428;2023-02-15T16:54:51;22.83;;;16.87;;
13185;SDS011;6658;53.080;7.428;2023-02-15T16:57:23;20.50;;;15.50;;
13185;SDS011;6658;53.080;7.428;2023-02-15T16:59:53;21.07;;;16.23;;
13185;SDS011;6658;53.080;7.428;2023-02-15T17:02:29;20.03;;;15.47;;
13185;SDS011;6658;53.080;7.428;2023-02-15T17:05:01;21.23;;;15.93;;
13185;SDS011;6658;53.080;7.428;2023-02-15T17:07:41;21.57;;;15.97;;
13185;SDS011;6658;53.080;7.428;2023-02-15T17:10:46;23.30;;;16.43;;
13185;SDS011;6658;53.080;7.428;2023-02-15T17:13:16;23.87;;;17.53;;
13185;SDS011;6658;53.080;7.428;2023-02-15T17:18:24;25.17;;;19.90;;
13185;SDS011;6658;53.080;7.428;2023-02-15T17:21:01;23.20;;;17.23;;
13185;SDS011;6658;53.080;7.428;2023-02-15T17:23:45;22.30;;;17.20;;
13185;SDS011;6658;53.080;7.428;2023-02-15T17:26:14;23.70;;;17.23;;
13185;SDS011;6658;53.080;7.428;2023-02-15T17:28:46;22.17;;;16.97;;
13185;SDS011;6658;53.080;7.428;2023-02-15T17:31:16;23.30;;;17.77;;
13185;SDS011;6658;53.080;7.428;2023-02-15T17:33:45;22.63;;;17.10;;
13185;SDS011;6658;53.080;7.428;2023-02-15T17:38:42;26.37;;;18.37;;
13185;SDS011;6658;53.080;7.428;2023-02-15T17:41:31;24.70;;;17.07;;
13185;SDS011;6658;53.080;7.428;2023-02-15T17:44:04;26.97;;;17.47;;
13185;SDS011;6658;53.080;7.428;2023-02-15T17:46:33;24.63;;;18.07;;
13185;SDS011;6658;53.080;7.428;2023-02-15T17:49:01;23.80;;;18.30;;
13185;SDS011;6658;53.080;7.428;2023-02-15T17:51:27;21.77;;;17.60;;
13185;SDS011;6658;53.080;7.428;2023-02-15T17:53:53;26.03;;;18.10;;
13185;SDS011;6658;53.080;7.428;2023-02-15T17:56:38;26.07;;;18.53;;
13185;SDS011;6658;53.080;7.428;2023-02-15T17:59:04;21.80;;;17.10;;
13185;SDS011;6658;53.080;7.428;2023-02-15T18:01:31;23.80;;;16.87;;
13185;SDS011;6658;53.080;7.428;2023-02-15T18:04:18;22.07;;;17.13;;
13185;SDS011;6658;53.080;7.428;2023-02-15T18:07:03;23.93;;;18.27;;
13185;SDS011;6658;53.080;7.428;2023-02-15T18:09:47;23.13;;;16.73;;
13185;SDS011;6658;53.080;7.428;2023-02-15T18:12:33;26.13;;;17.67;;
13185;SDS011;6658;53.080;7.428;2023-02-15T18:15:02;22.00;;;15.90;;